メインページ
METAR-TAF:

METAR-TAF

空港 :

William H. Morse State Airport

ベニントン, バーモント州, アメリカ合衆国

緯度: 42-53-24N, 経度: 073-14-47W, 海抜: 252m

現時点の気象観測

当レポートは1時間0分前の16:54(UTC)に作成
北西の風 9kt、最大22ktの突風を伴う、西から北/北西の間で変化する
気温 13°C
湿度 24%
気圧 1011 hPa
視程: 16.1km
晴天

METAR: KDDH 071654Z AUTO 32009G22KT 280V340 10SM CLR 13/M07 A2986 RMK AO2 SLP112 T01331067

時間: 13:54 (17:54 UTC)


TAF: 見つかりません

4,000以上の空港の気象観測と天気予報(METAR報とTAF報)

利用可能な観測所は地図上に黄色い丸と赤い丸で示す。

丸の上にカーソルを重ねると観測所名を参照できる。

次にクリックすると気象観測と天気予報を参照できる。

マップの切り替え:黒色「×」印の緑ボタンをクリックして拡大、「-」印の緑ボタンをクリックして縮小、緑色の三角印をクリックして隣りの地図に切り替え


METAR-TAF: